Terminal Aerodrome Forecast
Issued by NWS

Home | Current Version | Previous Version | Text Only | Print | Product List | Glossary On
Versions: 1 2 3 4 5 6 7 8 9 10 11 12 13 14 15 16 17 18 19
000
FTAK31 PANC 221737
TAFACD
TAF
PACD 221737Z 2218/2318 13020G30KT P6SM SCT035 OVC050
     FM222000 11025G40KT 6SM -SN BR OVC025
     FM222200 11030G45KT 2SM -SN SCT005 OVC012
     FM230000 11040G60KT 1/4SM SN BLSN OVC005
     FM230800 12025G35KT 1SM -SN BKN008 OVC020
     FM231100 14014KT 5SM -RASN SCT008 OVC012=

USA.gov is the U.S. government's official web portal to all federal, state and local government web resources and services.